createdAt,value
2017-12-01T00:01:50.801Z,33.30
2017-12-01T00:04:18.325Z,38.28
2017-12-01T00:06:45.892Z,31.62
2017-12-01T00:09:14.303Z,35.38
2017-12-01T00:11:41.921Z,42.80
2017-12-01T00:16:43.178Z,37.88
2017-12-01T00:19:10.662Z,43.40
2017-12-01T00:21:38.923Z,41.47
2017-12-01T00:24:06.473Z,37.28
2017-12-01T00:26:33.966Z,36.80
2017-12-01T00:29:01.439Z,34.38
2017-12-01T00:31:28.926Z,34.67
2017-12-01T00:33:56.406Z,41.75
2017-12-01T00:36:23.909Z,35.63
2017-12-01T00:38:51.457Z,42.70
2017-12-01T00:41:19.707Z,46.22
2017-12-01T00:43:47.221Z,41.03
2017-12-01T00:46:14.759Z,35.55
2017-12-01T00:48:42.263Z,41.20
2017-12-01T00:51:09.763Z,36.35
2017-12-01T00:53:37.265Z,32.35
2017-12-01T00:56:04.786Z,41.08
2017-12-01T00:58:32.263Z,44.50
2017-12-01T01:00:59.774Z,39.13
2017-12-01T01:03:27.302Z,42.53
2017-12-01T01:05:54.796Z,48.22
2017-12-01T01:08:22.326Z,42.58
2017-12-01T01:10:49.829Z,42.20
2017-12-01T01:13:17.347Z,41.42
2017-12-01T01:15:44.849Z,42.08
2017-12-01T01:18:12.361Z,48.63
2017-12-01T01:20:39.852Z,42.60
2017-12-01T01:23:07.334Z,49.78
2017-12-01T01:25:34.835Z,46.92
2017-12-01T01:28:02.311Z,43.38
2017-12-01T01:30:29.800Z,52.60
2017-12-01T01:32:57.325Z,54.67
2017-12-01T01:35:24.806Z,46.70
2017-12-01T01:37:52.284Z,49.85
2017-12-01T01:40:19.803Z,45.08
2017-12-01T01:42:47.394Z,45.33
2017-12-01T01:45:15.003Z,47.88
2017-12-01T01:47:42.488Z,45.15
2017-12-01T01:50:10.763Z,50.38
2017-12-01T01:52:38.994Z,46.65
2017-12-01T01:55:07.282Z,45.05
2017-12-01T01:57:34.783Z,52.45
2017-12-01T02:00:03.061Z,49.17
2017-12-01T02:02:30.550Z,51.15
2017-12-01T02:04:58.144Z,49.33
2017-12-01T02:07:25.608Z,52.50
2017-12-01T02:09:53.139Z,55.12
2017-12-01T02:12:20.647Z,55.08
2017-12-01T02:14:48.156Z,52.22
2017-12-01T02:17:15.651Z,57.08
2017-12-01T02:19:43.138Z,52.83
2017-12-01T02:22:10.680Z,50.63
2017-12-01T02:24:38.918Z,57.17
2017-12-01T02:27:06.381Z,53.97
2017-12-01T02:29:33.884Z,53.85
2017-12-01T02:32:01.396Z,50.08
2017-12-01T02:34:28.904Z,46.25
2017-12-01T02:36:56.463Z,46.55
2017-12-01T02:39:23.942Z,53.10
2017-12-01T02:41:51.410Z,52.03
2017-12-01T02:44:18.913Z,59.15
2017-12-01T02:46:47.231Z,55.97
2017-12-01T02:49:14.722Z,43.05
2017-12-01T02:51:42.243Z,46.78
2017-12-01T02:54:09.800Z,48.00
2017-12-01T02:56:37.302Z,50.10
2017-12-01T02:59:04.831Z,55.50
2017-12-01T03:01:32.305Z,55.78
2017-12-01T03:03:59.820Z,49.05
2017-12-01T03:06:27.294Z,45.25
2017-12-01T03:08:54.752Z,40.35
2017-12-01T03:11:22.263Z,50.28
2017-12-01T03:13:50.514Z,48.20
2017-12-01T03:16:17.984Z,40.75
2017-12-01T03:18:45.461Z,47.10
2017-12-01T03:21:12.990Z,46.88
2017-12-01T03:23:40.478Z,44.35
2017-12-01T03:26:07.972Z,46.03
2017-12-01T03:28:35.487Z,45.53
2017-12-01T03:31:03.742Z,40.83
2017-12-01T03:33:31.286Z,45.83
2017-12-01T03:35:58.770Z,42.22
2017-12-01T03:38:27.031Z,49.15
2017-12-01T03:40:54.539Z,39.67
2017-12-01T03:43:22.072Z,43.92
2017-12-01T03:45:50.340Z,41.08
2017-12-01T03:48:18.620Z,41.03
2017-12-01T03:50:46.121Z,42.47
2017-12-01T03:53:13.693Z,40.35
2017-12-01T03:55:41.225Z,46.95
2017-12-01T03:58:08.722Z,36.30
2017-12-01T04:00:36.190Z,44.03
2017-12-01T04:03:03.720Z,43.10
2017-12-01T04:05:31.202Z,40.05
2017-12-01T04:07:58.697Z,42.25
2017-12-01T04:10:26.188Z,43.90
2017-12-01T04:12:53.740Z,43.22
2017-12-01T04:15:21.952Z,40.55
2017-12-01T04:17:49.492Z,39.08
2017-12-01T04:20:16.968Z,37.70
2017-12-01T04:22:44.443Z,37.55
2017-12-01T04:25:12.678Z,40.38
2017-12-01T04:27:40.160Z,36.65
2017-12-01T04:30:07.635Z,38.83
2017-12-01T04:32:35.915Z,42.62
2017-12-01T04:35:03.564Z,38.35
2017-12-01T04:37:31.064Z,38.88
2017-12-01T04:39:58.563Z,44.17
2017-12-01T04:42:26.062Z,39.95
2017-12-01T04:44:54.317Z,38.08
2017-12-01T04:47:22.574Z,39.70
2017-12-01T04:49:50.099Z,33.83
2017-12-01T04:52:17.655Z,34.13
2017-12-01T04:54:45.149Z,30.33
2017-12-01T04:57:12.638Z,41.72
2017-12-01T04:59:40.909Z,37.50
2017-12-01T05:02:09.246Z,31.98
2017-12-01T05:04:36.752Z,32.22
2017-12-01T05:07:05.033Z,33.75
2017-12-01T05:09:32.584Z,35.92
2017-12-01T05:12:00.063Z,36.58
2017-12-01T05:14:27.601Z,32.08
2017-12-01T05:16:55.189Z,31.45
2017-12-01T05:19:22.734Z,38.38
2017-12-01T05:21:50.308Z,31.77
2017-12-01T05:24:17.802Z,31.08
2017-12-01T05:26:45.360Z,32.53
2017-12-01T05:29:12.899Z,36.72
2017-12-01T05:31:40.423Z,31.83
2017-12-01T05:34:07.923Z,32.53
2017-12-01T05:36:35.415Z,32.58
2017-12-01T05:39:02.951Z,31.33
2017-12-01T05:41:30.470Z,29.75
2017-12-01T05:43:57.988Z,29.50
2017-12-01T05:46:25.495Z,31.12
2017-12-01T05:48:52.962Z,27.87
2017-12-01T05:51:20.508Z,24.73
2017-12-01T05:53:48.010Z,34.38
2017-12-01T05:56:15.524Z,31.50
2017-12-01T05:58:43.024Z,30.92
2017-12-01T06:01:10.518Z,25.55
2017-12-01T06:03:38.032Z,38.42
2017-12-01T06:06:05.539Z,28.55
2017-12-01T06:08:33.822Z,31.33
2017-12-01T06:11:01.370Z,29.60
2017-12-01T06:13:28.879Z,25.60
2017-12-01T06:15:56.337Z,28.35
2017-12-01T06:18:23.818Z,30.50
2017-12-01T06:20:51.324Z,29.15
2017-12-01T06:23:18.854Z,29.02
2017-12-01T06:25:52.468Z,31.83
2017-12-01T06:28:26.651Z,35.00
2017-12-01T06:30:58.690Z,31.73
2017-12-01T06:33:26.359Z,30.23
2017-12-01T06:35:54.207Z,32.58
2017-12-01T06:38:21.890Z,32.85
2017-12-01T06:40:54.576Z,30.65
2017-12-01T06:43:26.223Z,31.10
2017-12-01T06:45:57.766Z,28.75
2017-12-01T06:48:27.997Z,27.87
2017-12-01T06:53:38.155Z,36.45
2017-12-01T06:56:06.098Z,30.60
2017-12-01T06:58:47.686Z,36.20
2017-12-01T07:03:56.494Z,32.95
2017-12-01T07:06:23.996Z,30.08
2017-12-01T07:08:51.466Z,30.35
2017-12-01T07:11:19.843Z,24.25
2017-12-01T07:13:47.329Z,28.90
2017-12-01T07:16:15.548Z,28.33
2017-12-01T07:18:42.993Z,31.70
2017-12-01T07:21:11.333Z,29.42
2017-12-01T07:23:39.558Z,32.22
2017-12-01T07:26:18.763Z,30.70
2017-12-01T07:28:46.214Z,27.92
2017-12-01T07:31:13.693Z,26.87
2017-12-01T07:33:41.179Z,37.03
2017-12-01T07:36:08.663Z,33.85
2017-12-01T07:38:36.132Z,30.60
2017-12-01T07:41:03.580Z,31.52
2017-12-01T07:43:31.029Z,26.90
2017-12-01T07:45:58.483Z,27.90
2017-12-01T07:48:25.934Z,26.87
2017-12-01T07:50:53.415Z,28.83
2017-12-01T07:53:20.883Z,27.75
2017-12-01T07:55:48.338Z,27.25
2017-12-01T07:58:16.559Z,29.30
2017-12-01T08:00:44.010Z,30.62
2017-12-01T08:03:11.467Z,26.83
2017-12-01T08:05:38.940Z,24.33
2017-12-01T08:08:06.390Z,25.37
2017-12-01T08:10:33.829Z,32.15
2017-12-01T08:13:01.305Z,25.45
2017-12-01T08:15:28.758Z,34.30
2017-12-01T08:18:07.955Z,32.58
2017-12-01T08:20:35.425Z,30.65
2017-12-01T08:23:02.952Z,32.00
2017-12-01T08:25:40.288Z,28.62
2017-12-01T08:28:07.753Z,25.17
2017-12-01T08:30:35.201Z,26.62
2017-12-01T08:33:02.686Z,25.90
2017-12-01T08:35:30.230Z,30.55
2017-12-01T08:37:57.692Z,27.77
2017-12-01T08:40:25.145Z,30.15
2017-12-01T08:42:52.614Z,27.92
2017-12-01T08:45:20.058Z,29.95
2017-12-01T08:47:47.542Z,29.00
2017-12-01T08:50:14.986Z,28.17
2017-12-01T08:52:42.432Z,31.58
2017-12-01T08:55:09.893Z,27.35
2017-12-01T08:57:37.364Z,28.23
2017-12-01T09:00:04.808Z,32.00
2017-12-01T09:02:32.283Z,31.65
2017-12-01T09:04:59.737Z,31.33
2017-12-01T09:07:27.187Z,31.25
2017-12-01T09:09:54.634Z,30.20
2017-12-01T09:12:22.095Z,26.02
2017-12-01T09:14:49.545Z,32.40
2017-12-01T09:17:17.007Z,27.98
2017-12-01T09:19:44.466Z,26.73
2017-12-01T09:22:11.921Z,25.45
2017-12-01T09:24:39.380Z,30.62
2017-12-01T09:27:06.836Z,27.65
2017-12-01T09:29:34.320Z,24.05
2017-12-01T09:32:02.555Z,23.50
2017-12-01T09:34:30.006Z,30.40
2017-12-01T09:36:57.462Z,26.90
2017-12-01T09:39:24.934Z,28.55
2017-12-01T09:41:52.408Z,26.05
2017-12-01T09:44:19.893Z,26.08
2017-12-01T09:46:47.345Z,27.30
2017-12-01T09:49:14.790Z,29.90
2017-12-01T09:51:43.024Z,22.48
2017-12-01T09:54:10.520Z,25.75
2017-12-01T09:56:38.735Z,22.77
2017-12-01T09:59:06.184Z,28.40
2017-12-01T10:01:33.628Z,24.30
2017-12-01T10:04:01.097Z,24.25
2017-12-01T10:06:28.546Z,24.70
2017-12-01T10:08:56.045Z,26.23
2017-12-01T10:11:23.509Z,28.40
2017-12-01T10:13:50.969Z,25.70
2017-12-01T10:16:18.430Z,27.83
2017-12-01T10:18:45.882Z,27.02
2017-12-01T10:21:13.330Z,24.70
2017-12-01T10:23:40.792Z,25.17
2017-12-01T10:26:08.246Z,26.80
2017-12-01T10:28:35.697Z,24.98
2017-12-01T10:31:03.156Z,25.05
2017-12-01T10:33:30.639Z,23.15
2017-12-01T10:35:58.069Z,25.98
2017-12-01T10:38:25.533Z,23.12
2017-12-01T10:40:53.005Z,26.05
2017-12-01T10:43:20.473Z,24.95
2017-12-01T10:45:48.701Z,25.42
2017-12-01T10:48:16.150Z,28.77
2017-12-01T10:50:43.607Z,25.08
2017-12-01T10:53:11.068Z,27.50
2017-12-01T10:55:38.514Z,26.40
2017-12-01T10:58:05.953Z,31.30
2017-12-01T11:00:33.418Z,26.27
2017-12-01T11:03:00.909Z,24.87
2017-12-01T11:05:28.370Z,29.27
2017-12-01T11:07:55.822Z,24.23
2017-12-01T11:10:23.279Z,25.60
2017-12-01T11:12:50.729Z,23.27
2017-12-01T11:15:18.205Z,24.48
2017-12-01T11:17:45.649Z,26.70
2017-12-01T11:20:13.098Z,26.62
2017-12-01T11:22:40.571Z,24.67
2017-12-01T11:25:08.015Z,24.25
2017-12-01T11:27:35.482Z,27.58
2017-12-01T11:30:02.943Z,24.98
2017-12-01T11:32:30.401Z,29.08
2017-12-01T11:34:57.859Z,27.05
2017-12-01T11:37:25.314Z,26.15
2017-12-01T11:39:52.769Z,25.60
2017-12-01T11:42:20.224Z,29.08
2017-12-01T11:44:47.678Z,26.52
2017-12-01T11:47:15.134Z,29.30
2017-12-01T11:49:42.639Z,26.60
2017-12-01T11:52:10.085Z,30.12
2017-12-01T11:54:37.538Z,27.50
2017-12-01T11:57:04.988Z,26.20
2017-12-01T11:59:32.439Z,24.75
2017-12-01T12:01:59.893Z,31.08
2017-12-01T12:04:27.353Z,24.92
2017-12-01T12:06:54.808Z,24.85
2017-12-01T12:09:22.261Z,25.73
2017-12-01T12:11:49.726Z,25.40
2017-12-01T12:14:17.179Z,20.30
2017-12-01T12:16:44.636Z,25.12
2017-12-01T12:19:12.136Z,25.48
2017-12-01T12:21:39.587Z,29.65
2017-12-01T12:24:07.118Z,26.20
2017-12-01T12:26:34.631Z,24.48
2017-12-01T12:29:02.134Z,24.15
2017-12-01T12:31:29.598Z,25.77
2017-12-01T12:33:57.883Z,25.45
2017-12-01T12:36:26.081Z,27.75
2017-12-01T12:38:53.567Z,24.27
2017-12-01T12:41:21.049Z,25.15
2017-12-01T12:43:48.577Z,25.37
2017-12-01T12:46:16.092Z,26.90
2017-12-01T12:48:43.604Z,23.38
2017-12-01T12:51:11.134Z,22.33
2017-12-01T12:53:38.623Z,24.42
2017-12-01T12:56:06.107Z,28.20
2017-12-01T12:58:34.371Z,30.00
2017-12-01T13:01:01.833Z,30.55
2017-12-01T13:03:29.288Z,23.50
2017-12-01T13:05:57.506Z,25.70
2017-12-01T13:08:24.992Z,24.05
2017-12-01T13:10:52.474Z,22.27
2017-12-01T13:13:19.924Z,22.87
2017-12-01T13:15:47.416Z,23.38
2017-12-01T13:18:14.905Z,18.87
2017-12-01T13:20:42.394Z,21.00
2017-12-01T13:23:09.873Z,25.85
2017-12-01T13:25:38.093Z,23.10
2017-12-01T13:28:05.615Z,21.25
2017-12-01T13:30:33.110Z,21.98
2017-12-01T13:33:00.615Z,22.85
2017-12-01T13:35:28.082Z,22.83
2017-12-01T13:37:55.704Z,21.02
2017-12-01T13:40:23.214Z,20.65
2017-12-01T13:42:50.661Z,19.40
2017-12-01T13:45:18.216Z,19.30
2017-12-01T13:47:45.682Z,19.33
2017-12-01T13:50:13.209Z,18.98
2017-12-01T13:52:40.785Z,20.10
2017-12-01T13:55:08.267Z,18.25
2017-12-01T13:57:37.450Z,19.00
2017-12-01T14:00:05.003Z,15.88
2017-12-01T14:02:32.558Z,27.35
2017-12-01T14:05:00.073Z,16.70
2017-12-01T14:07:27.612Z,14.82
2017-12-01T14:09:55.041Z,14.00
2017-12-01T14:12:22.497Z,19.90
2017-12-01T14:14:49.952Z,12.43
2017-12-01T14:17:17.413Z,13.62
2017-12-01T14:19:44.862Z,10.48
2017-12-01T14:22:13.072Z,12.37
2017-12-01T14:24:40.552Z,12.90
2017-12-01T14:27:08.037Z,15.57
2017-12-01T14:29:35.486Z,16.12
2017-12-01T14:32:02.949Z,13.60
2017-12-01T14:34:30.533Z,13.15
2017-12-01T14:36:58.046Z,12.73
2017-12-01T14:39:25.509Z,13.30
2017-12-01T14:41:52.965Z,15.38
2017-12-01T14:44:20.464Z,18.20
2017-12-01T14:46:47.916Z,13.90
2017-12-01T14:49:15.359Z,17.15
2017-12-01T14:51:43.581Z,13.25
2017-12-01T14:54:11.089Z,15.98
2017-12-01T14:56:38.549Z,14.73
2017-12-01T14:59:06.785Z,15.60
2017-12-01T15:01:34.262Z,15.32
2017-12-01T15:04:01.762Z,22.67
2017-12-01T15:06:29.241Z,16.48
2017-12-01T15:08:56.693Z,17.37
2017-12-01T15:11:24.224Z,16.67
2017-12-01T15:13:51.635Z,15.10
2017-12-01T15:16:19.109Z,17.50
2017-12-01T15:18:46.570Z,17.00
2017-12-01T15:21:14.155Z,18.23
2017-12-01T15:23:41.622Z,16.62
2017-12-01T15:26:09.898Z,15.20
2017-12-01T15:28:37.351Z,16.42
2017-12-01T15:31:04.823Z,17.77
2017-12-01T15:33:32.284Z,20.92
2017-12-01T15:35:59.775Z,20.10
2017-12-01T15:38:27.258Z,19.55
2017-12-01T15:40:55.482Z,21.95
2017-12-01T15:43:22.992Z,21.23
2017-12-01T15:45:51.238Z,22.80
2017-12-01T15:48:18.729Z,19.42
2017-12-01T15:50:46.197Z,17.48
2017-12-01T15:53:13.689Z,19.12
2017-12-01T15:55:41.164Z,19.50
2017-12-01T15:58:08.633Z,26.60
2017-12-01T16:00:36.111Z,20.30
2017-12-01T16:03:03.578Z,24.80
2017-12-01T16:05:31.065Z,20.12
2017-12-01T16:07:58.558Z,21.75
2017-12-01T16:10:26.041Z,26.25
2017-12-01T16:12:53.706Z,22.92
2017-12-01T16:15:21.989Z,20.95
2017-12-01T16:17:49.583Z,23.00
2017-12-01T16:20:17.057Z,21.10
2017-12-01T16:22:44.578Z,21.77
2017-12-01T16:25:12.026Z,23.10
2017-12-01T16:27:39.478Z,24.85
2017-12-01T16:30:06.990Z,23.85
2017-12-01T16:32:42.300Z,22.13
2017-12-01T16:35:01.927Z,25.62
2017-12-01T16:37:29.401Z,31.70
2017-12-01T16:39:57.654Z,20.73
2017-12-01T16:42:25.114Z,21.27
2017-12-01T16:44:52.567Z,23.02
2017-12-01T16:47:20.044Z,22.98
2017-12-01T16:49:48.274Z,23.35
2017-12-01T16:52:15.741Z,22.20
2017-12-01T16:54:43.246Z,24.17
2017-12-01T16:57:10.727Z,25.30
2017-12-01T16:59:38.214Z,21.20
2017-12-01T17:02:05.744Z,22.95
2017-12-01T17:04:33.313Z,20.30
2017-12-01T17:07:00.833Z,25.23
2017-12-01T17:09:29.078Z,26.67
2017-12-01T17:11:56.603Z,25.30
2017-12-01T17:14:24.099Z,22.37
2017-12-01T17:16:51.583Z,21.45
2017-12-01T17:19:20.944Z,20.25
2017-12-01T17:21:48.437Z,21.05
2017-12-01T17:24:16.681Z,21.10
2017-12-01T17:26:44.174Z,22.73
2017-12-01T17:29:12.446Z,23.10
2017-12-01T17:31:40.090Z,22.92
2017-12-01T17:34:07.641Z,26.15
2017-12-01T17:36:35.123Z,24.15
2017-12-01T17:39:03.419Z,25.50
2017-12-01T17:41:30.996Z,20.67
2017-12-01T17:43:58.493Z,24.83
2017-12-01T17:46:25.959Z,22.92
2017-12-01T17:48:53.427Z,21.85
2017-12-01T17:51:21.005Z,24.95
2017-12-01T17:53:50.347Z,24.05
2017-12-01T17:56:18.372Z,23.10
2017-12-01T17:58:45.857Z,28.98
2017-12-01T18:01:13.331Z,27.40
2017-12-01T18:03:40.952Z,29.23
2017-12-01T18:06:08.411Z,30.80
2017-12-01T18:08:36.114Z,29.50
2017-12-01T18:11:03.620Z,34.40
2017-12-01T18:13:31.494Z,33.75
2017-12-01T18:16:00.082Z,31.27
2017-12-01T18:18:27.739Z,31.05
2017-12-01T18:20:55.653Z,30.30
2017-12-01T18:23:23.253Z,29.12
2017-12-01T18:25:50.745Z,30.00
2017-12-01T18:28:19.036Z,26.87
2017-12-01T18:30:46.479Z,34.58
2017-12-01T18:33:13.950Z,34.28
2017-12-01T18:35:41.858Z,30.05
2017-12-01T18:38:09.583Z,29.35
2017-12-01T18:40:37.057Z,29.00
2017-12-01T18:43:05.688Z,28.60
2017-12-01T18:45:33.355Z,29.02
2017-12-01T18:48:00.843Z,28.27
2017-12-01T18:50:28.335Z,30.37
2017-12-01T18:52:55.894Z,29.20
2017-12-01T18:55:24.143Z,24.00
2017-12-01T18:57:51.631Z,26.33
2017-12-01T19:00:19.132Z,32.60
2017-12-01T19:02:48.707Z,27.77
2017-12-01T19:05:16.958Z,28.50
2017-12-01T19:07:44.451Z,31.87
2017-12-01T19:10:11.994Z,30.45
2017-12-01T19:12:39.508Z,30.35
2017-12-01T19:15:07.784Z,28.48
2017-12-01T19:17:35.444Z,27.35
2017-12-01T19:20:02.918Z,29.20
2017-12-01T19:22:30.412Z,30.10
2017-12-01T19:24:57.962Z,26.12
2017-12-01T19:27:26.222Z,24.92
2017-12-01T19:29:53.704Z,28.73
2017-12-01T19:32:21.170Z,25.85
2017-12-01T19:34:48.679Z,29.63
2017-12-01T19:37:16.199Z,26.55
2017-12-01T19:39:43.682Z,35.38
2017-12-01T19:42:11.212Z,36.67
2017-12-01T19:44:38.708Z,38.22
2017-12-01T19:47:06.194Z,33.97
2017-12-01T19:49:33.660Z,38.33
2017-12-01T19:52:01.925Z,28.58
2017-12-01T19:54:29.426Z,35.13
2017-12-01T19:56:56.910Z,33.25
2017-12-01T19:59:24.382Z,30.77
2017-12-01T20:01:51.952Z,29.12
2017-12-01T20:04:20.181Z,29.10
2017-12-01T20:06:47.693Z,25.62
2017-12-01T20:09:15.224Z,28.02
2017-12-01T20:11:42.775Z,35.22
2017-12-01T20:14:10.299Z,31.55
2017-12-01T20:16:37.825Z,37.00
2017-12-01T20:19:05.338Z,34.58
2017-12-01T20:21:32.835Z,42.90
2017-12-01T20:24:00.304Z,40.80
2017-12-01T20:26:30.328Z,42.28
2017-12-01T20:28:57.881Z,37.40
2017-12-01T20:31:25.416Z,45.72
2017-12-01T20:33:52.898Z,51.00
2017-12-01T20:36:20.370Z,45.60
2017-12-01T20:38:47.961Z,42.42
2017-12-01T20:41:15.538Z,76.57
2017-12-01T20:43:43.078Z,39.35
2017-12-01T20:46:10.571Z,46.17
2017-12-01T20:48:38.818Z,84.22
2017-12-01T20:51:06.363Z,46.37
2017-12-01T20:53:34.100Z,61.53
2017-12-01T20:56:01.575Z,41.25
2017-12-01T20:58:29.095Z,42.83
2017-12-01T21:00:56.632Z,55.22
2017-12-01T21:03:24.381Z,44.88
2017-12-01T21:05:52.092Z,34.47
2017-12-01T21:08:19.650Z,36.42
2017-12-01T21:10:47.133Z,38.55
2017-12-01T21:13:14.642Z,42.42
2017-12-01T21:15:42.312Z,31.40
2017-12-01T21:18:09.817Z,36.70
2017-12-01T21:20:37.322Z,35.58
2017-12-01T21:23:04.853Z,34.08
2017-12-01T21:25:32.404Z,36.75
2017-12-01T21:27:59.874Z,42.78
2017-12-01T21:30:27.420Z,47.15
2017-12-01T21:32:55.077Z,41.47
2017-12-01T21:35:22.563Z,44.58
2017-12-01T21:37:50.039Z,38.03
2017-12-01T21:40:17.508Z,38.38
2017-12-01T21:42:44.975Z,39.40
2017-12-01T21:45:12.438Z,37.15
2017-12-01T21:47:40.773Z,39.65
2017-12-01T21:50:08.251Z,43.83
2017-12-01T21:52:35.749Z,37.53
2017-12-01T21:58:05.819Z,35.65
2017-12-01T22:00:35.096Z,40.67
2017-12-01T22:03:02.952Z,43.05
2017-12-01T22:05:31.362Z,47.95
2017-12-01T22:07:59.015Z,39.20
2017-12-01T22:10:26.666Z,36.58
2017-12-01T22:12:54.348Z,41.78
2017-12-01T22:15:21.929Z,34.83
2017-12-01T22:17:49.520Z,32.95
2017-12-01T22:20:17.568Z,33.78
2017-12-01T22:22:45.195Z,37.55
2017-12-01T22:25:13.049Z,34.20
2017-12-01T22:27:41.714Z,37.22
2017-12-01T22:30:09.406Z,30.55
2017-12-01T22:32:37.284Z,37.17
2017-12-01T22:35:04.978Z,30.02
2017-12-01T22:37:32.608Z,32.40
2017-12-01T22:40:00.246Z,29.83
2017-12-01T22:42:27.921Z,31.17
2017-12-01T22:44:55.725Z,31.95
2017-12-01T22:47:23.440Z,30.30
2017-12-01T22:49:51.098Z,30.27
2017-12-01T22:52:18.908Z,33.95
2017-12-01T22:54:46.510Z,29.63
2017-12-01T22:57:14.211Z,32.90
2017-12-01T22:59:41.812Z,30.15
2017-12-01T23:02:09.371Z,29.52
2017-12-01T23:04:37.062Z,27.35
2017-12-01T23:07:04.636Z,30.95
2017-12-01T23:09:32.207Z,31.50
2017-12-01T23:11:59.832Z,28.35
2017-12-01T23:14:27.490Z,32.28
2017-12-01T23:16:55.098Z,29.58
2017-12-01T23:19:22.726Z,31.85
2017-12-01T23:21:50.417Z,29.40
2017-12-01T23:24:18.485Z,30.55
2017-12-01T23:26:46.224Z,32.75
2017-12-01T23:29:13.865Z,34.53
2017-12-01T23:31:41.605Z,30.50
2017-12-01T23:34:09.346Z,30.55
2017-12-01T23:36:37.339Z,34.50
2017-12-01T23:39:05.170Z,32.90
2017-12-01T23:41:32.867Z,32.88
2017-12-01T23:44:00.462Z,33.88
2017-12-01T23:46:29.018Z,35.03
2017-12-01T23:48:56.536Z,30.37
2017-12-01T23:51:24.262Z,35.45
2017-12-01T23:53:51.807Z,31.80
2017-12-01T23:56:19.444Z,33.75
2017-12-01T23:58:47.015Z,32.60
